sensor_id;sensor_type;location;lat;lon;timestamp;temperature;humidity
50013;DHT22;35901;48.694;9.476;2023-04-24T00:00:04;9.70;99.90
50013;DHT22;35901;48.694;9.476;2023-04-24T00:02:35;9.70;99.90
50013;DHT22;35901;48.694;9.476;2023-04-24T00:05:04;9.60;99.90
50013;DHT22;35901;48.694;9.476;2023-04-24T00:07:30;9.50;99.90
50013;DHT22;35901;48.694;9.476;2023-04-24T00:09:56;9.40;99.90
50013;DHT22;35901;48.694;9.476;2023-04-24T00:12:22;9.30;99.90
50013;DHT22;35901;48.694;9.476;2023-04-24T00:14:48;9.20;99.90
50013;DHT22;35901;48.694;9.476;2023-04-24T00:17:13;9.10;99.90
50013;DHT22;35901;48.694;9.476;2023-04-24T00:19:39;9.00;99.90
50013;DHT22;35901;48.694;9.476;2023-04-24T00:22:05;9.00;99.90
50013;DHT22;35901;48.694;9.476;2023-04-24T00:24:31;8.90;99.90
50013;DHT22;35901;48.694;9.476;2023-04-24T00:26:56;8.90;99.90
50013;DHT22;35901;48.694;9.476;2023-04-24T00:29:22;8.90;99.90
50013;DHT22;35901;48.694;9.476;2023-04-24T00:31:48;8.90;99.90
50013;DHT22;35901;48.694;9.476;2023-04-24T00:34:14;9.00;99.90
50013;DHT22;35901;48.694;9.476;2023-04-24T00:36:39;9.10;99.90
50013;DHT22;35901;48.694;9.476;2023-04-24T00:39:05;9.10;99.90
50013;DHT22;35901;48.694;9.476;2023-04-24T00:41:34;9.20;99.90
50013;DHT22;35901;48.694;9.476;2023-04-24T00:44:00;9.20;99.90
50013;DHT22;35901;48.694;9.476;2023-04-24T00:46:26;9.30;99.90
50013;DHT22;35901;48.694;9.476;2023-04-24T00:48:52;9.40;99.90
50013;DHT22;35901;48.694;9.476;2023-04-24T00:51:18;9.50;99.90
50013;DHT22;35901;48.694;9.476;2023-04-24T00:53:44;9.50;99.90
50013;DHT22;35901;48.694;9.476;2023-04-24T00:56:09;9.60;99.90
50013;DHT22;35901;48.694;9.476;2023-04-24T00:58:35;9.60;99.90
50013;DHT22;35901;48.694;9.476;2023-04-24T01:01:01;9.60;99.90
50013;DHT22;35901;48.694;9.476;2023-04-24T01:03:31;9.70;99.90
50013;DHT22;35901;48.694;9.476;2023-04-24T01:05:57;9.80;99.90
50013;DHT22;35901;48.694;9.476;2023-04-24T01:08:24;9.80;99.90
50013;DHT22;35901;48.694;9.476;2023-04-24T01:10:52;9.80;99.90
50013;DHT22;35901;48.694;9.476;2023-04-24T01:13:19;9.80;99.90
50013;DHT22;35901;48.694;9.476;2023-04-24T01:15:45;9.80;99.90
50013;DHT22;35901;48.694;9.476;2023-04-24T01:18:12;9.80;99.90
50013;DHT22;35901;48.694;9.476;2023-04-24T01:20:40;9.80;99.90
50013;DHT22;35901;48.694;9.476;2023-04-24T01:23:07;9.80;99.90
50013;DHT22;35901;48.694;9.476;2023-04-24T01:25:33;9.80;99.90
50013;DHT22;35901;48.694;9.476;2023-04-24T01:27:59;9.80;99.90
50013;DHT22;35901;48.694;9.476;2023-04-24T01:30:26;9.80;99.90
50013;DHT22;35901;48.694;9.476;2023-04-24T01:32:52;9.90;99.90
50013;DHT22;35901;48.694;9.476;2023-04-24T01:35:18;9.80;99.90
50013;DHT22;35901;48.694;9.476;2023-04-24T01:37:44;9.80;99.90
50013;DHT22;35901;48.694;9.476;2023-04-24T01:40:10;9.80;99.90
50013;DHT22;35901;48.694;9.476;2023-04-24T01:42:36;9.70;99.90
50013;DHT22;35901;48.694;9.476;2023-04-24T01:45:03;9.70;99.90
50013;DHT22;35901;48.694;9.476;2023-04-24T01:47:30;9.60;99.90
50013;DHT22;35901;48.694;9.476;2023-04-24T01:49:57;9.50;99.90
50013;DHT22;35901;48.694;9.476;2023-04-24T01:52:22;9.40;99.90
50013;DHT22;35901;48.694;9.476;2023-04-24T01:54:48;9.40;99.90
50013;DHT22;35901;48.694;9.476;2023-04-24T01:57:14;9.30;99.90
50013;DHT22;35901;48.694;9.476;2023-04-24T01:59:41;9.40;99.90
50013;DHT22;35901;48.694;9.476;2023-04-24T02:02:07;9.40;99.90
50013;DHT22;35901;48.694;9.476;2023-04-24T02:04:34;9.40;99.90
50013;DHT22;35901;48.694;9.476;2023-04-24T02:07:00;9.40;99.90
50013;DHT22;35901;48.694;9.476;2023-04-24T02:09:26;9.40;99.90
50013;DHT22;35901;48.694;9.476;2023-04-24T02:11:51;9.50;99.90
50013;DHT22;35901;48.694;9.476;2023-04-24T02:14:17;9.50;99.90
50013;DHT22;35901;48.694;9.476;2023-04-24T02:16:43;9.40;99.90
50013;DHT22;35901;48.694;9.476;2023-04-24T02:19:09;9.40;99.90
50013;DHT22;35901;48.694;9.476;2023-04-24T02:21:35;9.40;99.90
50013;DHT22;35901;48.694;9.476;2023-04-24T02:24:01;9.40;99.90
50013;DHT22;35901;48.694;9.476;2023-04-24T02:26:27;9.40;99.90
50013;DHT22;35901;48.694;9.476;2023-04-24T02:28:53;9.40;99.90
50013;DHT22;35901;48.694;9.476;2023-04-24T02:31:20;9.30;99.90
50013;DHT22;35901;48.694;9.476;2023-04-24T02:33:47;9.30;99.90
50013;DHT22;35901;48.694;9.476;2023-04-24T02:36:12;9.40;99.90
50013;DHT22;35901;48.694;9.476;2023-04-24T02:38:39;9.40;99.90
50013;DHT22;35901;48.694;9.476;2023-04-24T02:41:05;9.40;99.90
50013;DHT22;35901;48.694;9.476;2023-04-24T02:43:32;9.40;99.90
50013;DHT22;35901;48.694;9.476;2023-04-24T02:45:58;9.50;99.90
50013;DHT22;35901;48.694;9.476;2023-04-24T02:48:25;9.40;99.90
50013;DHT22;35901;48.694;9.476;2023-04-24T02:50:51;9.40;99.90
50013;DHT22;35901;48.694;9.476;2023-04-24T02:53:17;9.40;99.90
50013;DHT22;35901;48.694;9.476;2023-04-24T02:55:42;9.40;99.90
50013;DHT22;35901;48.694;9.476;2023-04-24T02:58:08;9.40;99.90
50013;DHT22;35901;48.694;9.476;2023-04-24T03:00:34;9.40;99.90
50013;DHT22;35901;48.694;9.476;2023-04-24T03:03:00;9.40;99.90
50013;DHT22;35901;48.694;9.476;2023-04-24T03:05:25;9.40;99.90
50013;DHT22;35901;48.694;9.476;2023-04-24T03:07:52;9.40;99.90
50013;DHT22;35901;48.694;9.476;2023-04-24T03:10:20;9.40;99.90
50013;DHT22;35901;48.694;9.476;2023-04-24T03:12:48;9.30;99.90
50013;DHT22;35901;48.694;9.476;2023-04-24T03:15:14;9.30;99.90
50013;DHT22;35901;48.694;9.476;2023-04-24T03:17:40;9.30;99.90
50013;DHT22;35901;48.694;9.476;2023-04-24T03:20:07;9.20;99.90
50013;DHT22;35901;48.694;9.476;2023-04-24T03:22:34;9.10;99.90
50013;DHT22;35901;48.694;9.476;2023-04-24T03:25:02;9.20;99.90
50013;DHT22;35901;48.694;9.476;2023-04-24T03:27:27;9.20;99.90
50013;DHT22;35901;48.694;9.476;2023-04-24T03:30:01;9.30;99.90
50013;DHT22;35901;48.694;9.476;2023-04-24T03:32:42;9.30;99.90
50013;DHT22;35901;48.694;9.476;2023-04-24T03:35:11;9.30;99.90
50013;DHT22;35901;48.694;9.476;2023-04-24T03:37:37;9.30;99.90
50013;DHT22;35901;48.694;9.476;2023-04-24T03:40:34;9.30;99.90
50013;DHT22;35901;48.694;9.476;2023-04-24T03:43:04;9.30;99.90
50013;DHT22;35901;48.694;9.476;2023-04-24T03:45:29;9.30;99.90
50013;DHT22;35901;48.694;9.476;2023-04-24T03:47:58;9.30;99.90
50013;DHT22;35901;48.694;9.476;2023-04-24T03:50:24;9.20;99.90
50013;DHT22;35901;48.694;9.476;2023-04-24T03:52:52;9.30;99.90
50013;DHT22;35901;48.694;9.476;2023-04-24T03:55:32;9.20;99.90
50013;DHT22;35901;48.694;9.476;2023-04-24T03:57:58;9.30;99.90
50013;DHT22;35901;48.694;9.476;2023-04-24T04:00:24;9.20;99.90
50013;DHT22;35901;48.694;9.476;2023-04-24T04:03:02;9.20;99.90
50013;DHT22;35901;48.694;9.476;2023-04-24T04:05:28;9.10;99.90
50013;DHT22;35901;48.694;9.476;2023-04-24T04:07:53;9.10;99.90
50013;DHT22;35901;48.694;9.476;2023-04-24T04:10:19;9.10;99.90
50013;DHT22;35901;48.694;9.476;2023-04-24T04:12:45;9.10;99.90
50013;DHT22;35901;48.694;9.476;2023-04-24T04:15:11;9.00;99.90
50013;DHT22;35901;48.694;9.476;2023-04-24T04:17:36;9.00;99.90
50013;DHT22;35901;48.694;9.476;2023-04-24T04:20:05;8.80;99.90
50013;DHT22;35901;48.694;9.476;2023-04-24T04:22:37;8.70;99.90
50013;DHT22;35901;48.694;9.476;2023-04-24T04:25:06;8.60;99.90
50013;DHT22;35901;48.694;9.476;2023-04-24T04:27:34;8.50;99.90
50013;DHT22;35901;48.694;9.476;2023-04-24T04:30:07;8.40;99.90
50013;DHT22;35901;48.694;9.476;2023-04-24T04:32:42;8.50;99.90
50013;DHT22;35901;48.694;9.476;2023-04-24T04:35:07;8.50;99.90
50013;DHT22;35901;48.694;9.476;2023-04-24T04:37:33;8.70;99.90
50013;DHT22;35901;48.694;9.476;2023-04-24T04:40:17;8.80;99.90
50013;DHT22;35901;48.694;9.476;2023-04-24T04:42:50;9.00;99.90
50013;DHT22;35901;48.694;9.476;2023-04-24T04:45:19;9.10;99.90
50013;DHT22;35901;48.694;9.476;2023-04-24T04:48:05;9.20;99.90
50013;DHT22;35901;48.694;9.476;2023-04-24T04:50:35;9.30;99.90
50013;DHT22;35901;48.694;9.476;2023-04-24T04:53:06;9.30;99.90
50013;DHT22;35901;48.694;9.476;2023-04-24T04:55:36;9.40;99.90
50013;DHT22;35901;48.694;9.476;2023-04-24T04:58:14;9.50;99.90
50013;DHT22;35901;48.694;9.476;2023-04-24T05:00:40;9.50;99.90
50013;DHT22;35901;48.694;9.476;2023-04-24T05:03:15;9.50;99.90
50013;DHT22;35901;48.694;9.476;2023-04-24T05:05:41;9.50;99.90
50013;DHT22;35901;48.694;9.476;2023-04-24T05:08:10;9.30;99.90
50013;DHT22;35901;48.694;9.476;2023-04-24T05:10:36;8.70;99.90
50013;DHT22;35901;48.694;9.476;2023-04-24T05:13:03;8.20;99.90
50013;DHT22;35901;48.694;9.476;2023-04-24T05:15:30;7.90;99.90
50013;DHT22;35901;48.694;9.476;2023-04-24T05:17:57;7.70;99.90
50013;DHT22;35901;48.694;9.476;2023-04-24T05:20:23;7.60;99.90
50013;DHT22;35901;48.694;9.476;2023-04-24T05:22:49;7.60;99.90
50013;DHT22;35901;48.694;9.476;2023-04-24T05:25:16;7.50;99.90
50013;DHT22;35901;48.694;9.476;2023-04-24T05:27:53;7.50;99.90
50013;DHT22;35901;48.694;9.476;2023-04-24T05:30:19;7.50;99.90
50013;DHT22;35901;48.694;9.476;2023-04-24T05:32:45;7.50;99.90
50013;DHT22;35901;48.694;9.476;2023-04-24T05:35:12;7.50;99.90
50013;DHT22;35901;48.694;9.476;2023-04-24T05:37:38;7.50;99.90
50013;DHT22;35901;48.694;9.476;2023-04-24T05:40:04;7.50;99.90
50013;DHT22;35901;48.694;9.476;2023-04-24T05:42:31;7.50;99.90
50013;DHT22;35901;48.694;9.476;2023-04-24T05:44:57;7.60;99.90
50013;DHT22;35901;48.694;9.476;2023-04-24T05:47:22;7.60;99.90
50013;DHT22;35901;48.694;9.476;2023-04-24T05:49:49;7.60;99.90
50013;DHT22;35901;48.694;9.476;2023-04-24T05:52:16;7.70;99.90
50013;DHT22;35901;48.694;9.476;2023-04-24T05:54:42;7.70;99.90
50013;DHT22;35901;48.694;9.476;2023-04-24T05:57:10;7.70;99.90
50013;DHT22;35901;48.694;9.476;2023-04-24T05:59:56;7.70;99.90
50013;DHT22;35901;48.694;9.476;2023-04-24T06:02:21;7.80;99.90
50013;DHT22;35901;48.694;9.476;2023-04-24T06:04:47;7.90;99.90
50013;DHT22;35901;48.694;9.476;2023-04-24T06:07:13;7.90;99.90
50013;DHT22;35901;48.694;9.476;2023-04-24T06:09:42;7.90;99.90
50013;DHT22;35901;48.694;9.476;2023-04-24T06:12:08;8.00;99.90
50013;DHT22;35901;48.694;9.476;2023-04-24T06:14:48;8.00;99.90
50013;DHT22;35901;48.694;9.476;2023-04-24T06:17:18;8.10;99.90
50013;DHT22;35901;48.694;9.476;2023-04-24T06:19:45;8.10;99.90
50013;DHT22;35901;48.694;9.476;2023-04-24T06:22:11;8.20;99.90
50013;DHT22;35901;48.694;9.476;2023-04-24T06:24:36;8.20;99.90
50013;DHT22;35901;48.694;9.476;2023-04-24T06:27:02;8.30;99.90
50013;DHT22;35901;48.694;9.476;2023-04-24T06:29:28;8.40;99.90
50013;DHT22;35901;48.694;9.476;2023-04-24T06:31:54;8.40;99.90
50013;DHT22;35901;48.694;9.476;2023-04-24T06:34:19;8.50;99.90
50013;DHT22;35901;48.694;9.476;2023-04-24T06:36:46;8.70;99.90
50013;DHT22;35901;48.694;9.476;2023-04-24T06:39:12;8.90;99.90
50013;DHT22;35901;48.694;9.476;2023-04-24T06:41:38;9.00;99.90
50013;DHT22;35901;48.694;9.476;2023-04-24T06:44:03;9.10;99.90
50013;DHT22;35901;48.694;9.476;2023-04-24T06:46:29;9.50;99.90
50013;DHT22;35901;48.694;9.476;2023-04-24T06:48:55;10.80;99.90
50013;DHT22;35901;48.694;9.476;2023-04-24T06:51:23;11.90;99.90
50013;DHT22;35901;48.694;9.476;2023-04-24T06:53:49;12.80;99.90
50013;DHT22;35901;48.694;9.476;2023-04-24T06:56:15;13.50;99.90
50013;DHT22;35901;48.694;9.476;2023-04-24T06:58:41;14.00;99.90
50013;DHT22;35901;48.694;9.476;2023-04-24T07:01:07;14.30;99.90
50013;DHT22;35901;48.694;9.476;2023-04-24T07:03:33;13.90;99.90
50013;DHT22;35901;48.694;9.476;2023-04-24T07:05:58;13.70;99.90
50013;DHT22;35901;48.694;9.476;2023-04-24T07:08:24;13.70;99.90
50013;DHT22;35901;48.694;9.476;2023-04-24T07:10:51;14.10;99.90
50013;DHT22;35901;48.694;9.476;2023-04-24T07:13:17;14.50;99.90
50013;DHT22;35901;48.694;9.476;2023-04-24T07:15:43;14.60;99.90
50013;DHT22;35901;48.694;9.476;2023-04-24T07:18:09;14.40;99.90
50013;DHT22;35901;48.694;9.476;2023-04-24T07:20:34;13.70;99.90
50013;DHT22;35901;48.694;9.476;2023-04-24T07:23:00;13.30;99.90
50013;DHT22;35901;48.694;9.476;2023-04-24T07:25:26;13.20;99.90
50013;DHT22;35901;48.694;9.476;2023-04-24T07:27:52;13.00;99.90
50013;DHT22;35901;48.694;9.476;2023-04-24T07:30:18;12.70;99.90
50013;DHT22;35901;48.694;9.476;2023-04-24T07:32:44;12.60;99.90
50013;DHT22;35901;48.694;9.476;2023-04-24T07:35:09;12.70;99.90
50013;DHT22;35901;48.694;9.476;2023-04-24T07:37:35;13.50;99.90
50013;DHT22;35901;48.694;9.476;2023-04-24T07:40:01;13.60;99.90
50013;DHT22;35901;48.694;9.476;2023-04-24T07:42:28;13.00;99.90
50013;DHT22;35901;48.694;9.476;2023-04-24T07:44:55;12.30;99.90
50013;DHT22;35901;48.694;9.476;2023-04-24T07:47:21;11.70;99.90
50013;DHT22;35901;48.694;9.476;2023-04-24T07:49:47;11.20;99.90
50013;DHT22;35901;48.694;9.476;2023-04-24T07:52:12;10.80;99.90
50013;DHT22;35901;48.694;9.476;2023-04-24T07:54:38;10.30;99.90
50013;DHT22;35901;48.694;9.476;2023-04-24T07:57:04;9.90;99.90
50013;DHT22;35901;48.694;9.476;2023-04-24T07:59:31;9.10;99.90
50013;DHT22;35901;48.694;9.476;2023-04-24T08:01:57;8.50;99.90
50013;DHT22;35901;48.694;9.476;2023-04-24T08:04:23;8.30;99.90
50013;DHT22;35901;48.694;9.476;2023-04-24T08:06:48;8.30;99.90
50013;DHT22;35901;48.694;9.476;2023-04-24T08:09:14;8.40;99.90
50013;DHT22;35901;48.694;9.476;2023-04-24T08:11:39;8.80;99.90
50013;DHT22;35901;48.694;9.476;2023-04-24T08:14:05;9.50;99.90
50013;DHT22;35901;48.694;9.476;2023-04-24T08:16:32;10.20;99.90
50013;DHT22;35901;48.694;9.476;2023-04-24T08:18:58;10.80;99.90
50013;DHT22;35901;48.694;9.476;2023-04-24T08:21:24;11.40;99.90
50013;DHT22;35901;48.694;9.476;2023-04-24T08:23:51;11.70;99.90
50013;DHT22;35901;48.694;9.476;2023-04-24T08:26:17;12.00;99.90
50013;DHT22;35901;48.694;9.476;2023-04-24T08:28:42;12.60;99.90
50013;DHT22;35901;48.694;9.476;2023-04-24T08:31:08;12.90;99.90
50013;DHT22;35901;48.694;9.476;2023-04-24T08:33:34;12.80;99.90
50013;DHT22;35901;48.694;9.476;2023-04-24T08:36:06;12.50;99.90
50013;DHT22;35901;48.694;9.476;2023-04-24T08:38:35;12.00;99.90
50013;DHT22;35901;48.694;9.476;2023-04-24T08:41:01;11.60;99.90
50013;DHT22;35901;48.694;9.476;2023-04-24T08:43:27;11.40;99.90
50013;DHT22;35901;48.694;9.476;2023-04-24T08:45:55;11.20;99.90
50013;DHT22;35901;48.694;9.476;2023-04-24T08:48:22;10.90;99.90
50013;DHT22;35901;48.694;9.476;2023-04-24T08:50:50;10.80;99.90
50013;DHT22;35901;48.694;9.476;2023-04-24T08:53:18;10.70;99.90
50013;DHT22;35901;48.694;9.476;2023-04-24T08:55:44;10.70;99.90
50013;DHT22;35901;48.694;9.476;2023-04-24T08:58:12;10.80;99.90
50013;DHT22;35901;48.694;9.476;2023-04-24T09:00:39;11.00;99.90
50013;DHT22;35901;48.694;9.476;2023-04-24T09:03:05;11.00;99.90
50013;DHT22;35901;48.694;9.476;2023-04-24T09:05:32;10.90;99.90
50013;DHT22;35901;48.694;9.476;2023-04-24T09:08:02;11.20;99.90
50013;DHT22;35901;48.694;9.476;2023-04-24T09:10:30;11.80;99.90
50013;DHT22;35901;48.694;9.476;2023-04-24T09:12:56;11.90;99.90
50013;DHT22;35901;48.694;9.476;2023-04-24T09:15:24;12.30;99.90
50013;DHT22;35901;48.694;9.476;2023-04-24T09:17:50;13.00;99.90
50013;DHT22;35901;48.694;9.476;2023-04-24T09:20:15;13.50;99.90
50013;DHT22;35901;48.694;9.476;2023-04-24T09:22:42;13.90;99.90
50013;DHT22;35901;48.694;9.476;2023-04-24T09:25:09;14.00;99.90
50013;DHT22;35901;48.694;9.476;2023-04-24T09:27:42;13.90;99.90
50013;DHT22;35901;48.694;9.476;2023-04-24T09:30:08;13.40;99.90
50013;DHT22;35901;48.694;9.476;2023-04-24T09:32:34;12.90;99.90
50013;DHT22;35901;48.694;9.476;2023-04-24T09:35:12;12.90;99.90
50013;DHT22;35901;48.694;9.476;2023-04-24T09:37:42;13.00;99.90
50013;DHT22;35901;48.694;9.476;2023-04-24T09:40:18;13.00;99.90
50013;DHT22;35901;48.694;9.476;2023-04-24T09:45:11;13.10;99.90
50013;DHT22;35901;48.694;9.476;2023-04-24T09:47:38;13.10;99.90
50013;DHT22;35901;48.694;9.476;2023-04-24T09:52:43;12.90;99.90
50013;DHT22;35901;48.694;9.476;2023-04-24T09:55:17;12.70;99.90
50013;DHT22;35901;48.694;9.476;2023-04-24T09:57:55;12.80;99.90
50013;DHT22;35901;48.694;9.476;2023-04-24T10:02:58;13.80;99.90
50013;DHT22;35901;48.694;9.476;2023-04-24T10:05:25;13.90;98.90
50013;DHT22;35901;48.694;9.476;2023-04-24T10:10:30;13.40;98.20
50013;DHT22;35901;48.694;9.476;2023-04-24T10:12:56;13.20;98.60
50013;DHT22;35901;48.694;9.476;2023-04-24T10:15:22;13.10;98.10
50013;DHT22;35901;48.694;9.476;2023-04-24T10:17:50;13.20;96.40
50013;DHT22;35901;48.694;9.476;2023-04-24T10:20:24;13.40;95.40
50013;DHT22;35901;48.694;9.476;2023-04-24T10:22:52;13.50;94.20
50013;DHT22;35901;48.694;9.476;2023-04-24T10:25:20;13.90;95.50
50013;DHT22;35901;48.694;9.476;2023-04-24T10:27:47;14.60;94.70
50013;DHT22;35901;48.694;9.476;2023-04-24T10:30:13;14.70;94.80
50013;DHT22;35901;48.694;9.476;2023-04-24T10:32:39;14.50;93.70
50013;DHT22;35901;48.694;9.476;2023-04-24T10:35:07;13.90;92.40
50013;DHT22;35901;48.694;9.476;2023-04-24T10:37:38;13.30;93.10
50013;DHT22;35901;48.694;9.476;2023-04-24T10:40:06;12.90;94.40
50013;DHT22;35901;48.694;9.476;2023-04-24T10:42:33;12.90;95.40
50013;DHT22;35901;48.694;9.476;2023-04-24T10:44:59;13.40;96.70
50013;DHT22;35901;48.694;9.476;2023-04-24T10:47:27;14.20;95.90
50013;DHT22;35901;48.694;9.476;2023-04-24T10:49:53;14.40;94.90
50013;DHT22;35901;48.694;9.476;2023-04-24T10:52:19;14.60;93.00
50013;DHT22;35901;48.694;9.476;2023-04-24T10:54:47;14.80;93.70
50013;DHT22;35901;48.694;9.476;2023-04-24T10:59:52;14.20;91.50
50013;DHT22;35901;48.694;9.476;2023-04-24T11:02:39;14.00;92.30
50013;DHT22;35901;48.694;9.476;2023-04-24T11:05:15;13.90;91.80
50013;DHT22;35901;48.694;9.476;2023-04-24T11:08:13;13.90;92.10
50013;DHT22;35901;48.694;9.476;2023-04-24T11:10:46;14.00;91.70
50013;DHT22;35901;48.694;9.476;2023-04-24T11:13:21;14.00;92.60
50013;DHT22;35901;48.694;9.476;2023-04-24T11:18:52;13.70;92.20
50013;DHT22;35901;48.694;9.476;2023-04-24T11:21:25;13.50;92.30
50013;DHT22;35901;48.694;9.476;2023-04-24T11:23:51;13.20;93.00
50013;DHT22;35901;48.694;9.476;2023-04-24T11:26:19;13.00;93.50
50013;DHT22;35901;48.694;9.476;2023-04-24T11:28:50;12.80;93.20
50013;DHT22;35901;48.694;9.476;2023-04-24T11:31:40;12.60;93.50
50013;DHT22;35901;48.694;9.476;2023-04-24T11:34:13;12.40;94.20
50013;DHT22;35901;48.694;9.476;2023-04-24T11:36:42;12.30;94.20
50013;DHT22;35901;48.694;9.476;2023-04-24T11:39:08;12.20;93.80
50013;DHT22;35901;48.694;9.476;2023-04-24T11:41:35;12.00;94.30
50013;DHT22;35901;48.694;9.476;2023-04-24T11:44:03;11.80;94.80
50013;DHT22;35901;48.694;9.476;2023-04-24T11:46:30;11.80;95.40
50013;DHT22;35901;48.694;9.476;2023-04-24T11:48:57;11.70;95.10
50013;DHT22;35901;48.694;9.476;2023-04-24T11:51:24;11.70;95.10
50013;DHT22;35901;48.694;9.476;2023-04-24T11:53:54;11.60;95.10
50013;DHT22;35901;48.694;9.476;2023-04-24T11:56:24;11.60;95.40
50013;DHT22;35901;48.694;9.476;2023-04-24T11:58:52;11.60;95.40
50013;DHT22;35901;48.694;9.476;2023-04-24T12:01:21;11.60;95.80
50013;DHT22;35901;48.694;9.476;2023-04-24T12:03:50;11.70;95.30
50013;DHT22;35901;48.694;9.476;2023-04-24T12:06:16;11.70;95.60
50013;DHT22;35901;48.694;9.476;2023-04-24T12:08:46;11.80;95.20
50013;DHT22;35901;48.694;9.476;2023-04-24T12:11:15;11.80;95.80
50013;DHT22;35901;48.694;9.476;2023-04-24T12:13:40;11.70;96.00
50013;DHT22;35901;48.694;9.476;2023-04-24T12:16:06;11.70;96.40
50013;DHT22;35901;48.694;9.476;2023-04-24T12:18:33;11.60;95.70
50013;DHT22;35901;48.694;9.476;2023-04-24T12:21:23;11.50;96.30
50013;DHT22;35901;48.694;9.476;2023-04-24T12:23:54;11.50;96.70
50013;DHT22;35901;48.694;9.476;2023-04-24T12:26:20;11.50;96.40
50013;DHT22;35901;48.694;9.476;2023-04-24T12:28:49;11.60;96.00
50013;DHT22;35901;48.694;9.476;2023-04-24T12:31:16;11.80;95.40
50013;DHT22;35901;48.694;9.476;2023-04-24T12:33:42;12.10;96.00
50013;DHT22;35901;48.694;9.476;2023-04-24T12:36:10;12.40;95.70
50013;DHT22;35901;48.694;9.476;2023-04-24T12:38:37;12.70;95.60
50013;DHT22;35901;48.694;9.476;2023-04-24T12:41:12;12.90;94.90
50013;DHT22;35901;48.694;9.476;2023-04-24T12:43:38;13.00;95.10
50013;DHT22;35901;48.694;9.476;2023-04-24T12:46:04;13.00;94.70
50013;DHT22;35901;48.694;9.476;2023-04-24T12:48:30;12.80;94.90
50013;DHT22;35901;48.694;9.476;2023-04-24T12:51:00;12.50;94.60
50013;DHT22;35901;48.694;9.476;2023-04-24T12:53:28;12.30;94.30
50013;DHT22;35901;48.694;9.476;2023-04-24T12:55:57;12.00;94.90
50013;DHT22;35901;48.694;9.476;2023-04-24T12:58:23;11.80;95.20
50013;DHT22;35901;48.694;9.476;2023-04-24T13:00:52;11.90;95.60
50013;DHT22;35901;48.694;9.476;2023-04-24T13:03:18;12.00;95.50
50013;DHT22;35901;48.694;9.476;2023-04-24T13:05:44;12.20;95.50
50013;DHT22;35901;48.694;9.476;2023-04-24T13:08:10;12.30;95.60
50013;DHT22;35901;48.694;9.476;2023-04-24T13:10:35;12.40;95.40
50013;DHT22;35901;48.694;9.476;2023-04-24T13:13:01;12.50;96.10
50013;DHT22;35901;48.694;9.476;2023-04-24T13:15:28;12.40;95.80
50013;DHT22;35901;48.694;9.476;2023-04-24T13:17:53;12.40;95.30
50013;DHT22;35901;48.694;9.476;2023-04-24T13:20:19;12.20;95.30
50013;DHT22;35901;48.694;9.476;2023-04-24T13:22:44;12.00;95.70
50013;DHT22;35901;48.694;9.476;2023-04-24T13:25:10;12.00;95.50
50013;DHT22;35901;48.694;9.476;2023-04-24T13:27:38;11.80;95.70
50013;DHT22;35901;48.694;9.476;2023-04-24T13:30:04;11.70;95.80
50013;DHT22;35901;48.694;9.476;2023-04-24T13:32:30;11.70;96.40
50013;DHT22;35901;48.694;9.476;2023-04-24T13:34:56;11.70;96.60
50013;DHT22;35901;48.694;9.476;2023-04-24T13:37:22;11.70;96.70
50013;DHT22;35901;48.694;9.476;2023-04-24T13:39:48;11.70;96.60
50013;DHT22;35901;48.694;9.476;2023-04-24T13:42:14;11.80;96.60
50013;DHT22;35901;48.694;9.476;2023-04-24T13:44:40;12.20;96.40
50013;DHT22;35901;48.694;9.476;2023-04-24T13:47:05;12.30;96.20
50013;DHT22;35901;48.694;9.476;2023-04-24T13:49:31;12.30;96.20
50013;DHT22;35901;48.694;9.476;2023-04-24T13:51:57;12.30;96.80
50013;DHT22;35901;48.694;9.476;2023-04-24T13:54:22;12.30;96.60
50013;DHT22;35901;48.694;9.476;2023-04-24T13:56:51;12.40;97.10
50013;DHT22;35901;48.694;9.476;2023-04-24T13:59:17;12.40;96.80
50013;DHT22;35901;48.694;9.476;2023-04-24T14:01:44;12.40;96.70
50013;DHT22;35901;48.694;9.476;2023-04-24T14:04:10;12.40;97.10
50013;DHT22;35901;48.694;9.476;2023-04-24T14:06:36;12.40;97.00
50013;DHT22;35901;48.694;9.476;2023-04-24T14:09:02;12.40;96.20
50013;DHT22;35901;48.694;9.476;2023-04-24T14:11:28;12.20;96.00
50013;DHT22;35901;48.694;9.476;2023-04-24T14:13:54;11.90;95.40
50013;DHT22;35901;48.694;9.476;2023-04-24T14:16:21;11.70;95.20
50013;DHT22;35901;48.694;9.476;2023-04-24T14:18:47;11.60;95.30
50013;DHT22;35901;48.694;9.476;2023-04-24T14:21:13;11.40;95.60
50013;DHT22;35901;48.694;9.476;2023-04-24T14:23:38;11.40;96.00
50013;DHT22;35901;48.694;9.476;2023-04-24T14:26:04;11.40;96.90
50013;DHT22;35901;48.694;9.476;2023-04-24T14:28:30;11.20;97.50
50013;DHT22;35901;48.694;9.476;2023-04-24T14:30:55;11.40;97.90
50013;DHT22;35901;48.694;9.476;2023-04-24T14:33:21;11.60;98.30
50013;DHT22;35901;48.694;9.476;2023-04-24T14:35:47;11.90;98.10
50013;DHT22;35901;48.694;9.476;2023-04-24T14:38:13;11.80;98.20
50013;DHT22;35901;48.694;9.476;2023-04-24T14:40:40;11.80;98.70
50013;DHT22;35901;48.694;9.476;2023-04-24T14:43:05;11.90;99.20
50013;DHT22;35901;48.694;9.476;2023-04-24T14:45:32;12.20;99.20
50013;DHT22;35901;48.694;9.476;2023-04-24T14:47:58;12.20;98.90
50013;DHT22;35901;48.694;9.476;2023-04-24T14:50:23;12.10;98.80
50013;DHT22;35901;48.694;9.476;2023-04-24T14:52:53;11.90;99.20
50013;DHT22;35901;48.694;9.476;2023-04-24T14:55:20;11.80;99.30
50013;DHT22;35901;48.694;9.476;2023-04-24T14:57:45;11.70;99.30
50013;DHT22;35901;48.694;9.476;2023-04-24T15:00:18;11.60;99.80
50013;DHT22;35901;48.694;9.476;2023-04-24T15:02:45;11.60;99.90
50013;DHT22;35901;48.694;9.476;2023-04-24T15:05:11;11.40;99.90
50013;DHT22;35901;48.694;9.476;2023-04-24T15:07:39;11.20;99.90
50013;DHT22;35901;48.694;9.476;2023-04-24T15:10:07;11.00;99.90
50013;DHT22;35901;48.694;9.476;2023-04-24T15:12:33;11.00;99.90
50013;DHT22;35901;48.694;9.476;2023-04-24T15:14:59;10.90;99.90
50013;DHT22;35901;48.694;9.476;2023-04-24T15:17:25;10.90;99.90
50013;DHT22;35901;48.694;9.476;2023-04-24T15:19:51;10.90;99.90
50013;DHT22;35901;48.694;9.476;2023-04-24T15:22:17;10.90;99.90
50013;DHT22;35901;48.694;9.476;2023-04-24T15:24:42;11.00;99.90
50013;DHT22;35901;48.694;9.476;2023-04-24T15:27:11;11.10;99.90
50013;DHT22;35901;48.694;9.476;2023-04-24T15:29:37;11.30;99.90
50013;DHT22;35901;48.694;9.476;2023-04-24T15:32:03;11.30;99.90
50013;DHT22;35901;48.694;9.476;2023-04-24T15:34:28;11.30;99.90
50013;DHT22;35901;48.694;9.476;2023-04-24T15:36:54;11.20;99.90
50013;DHT22;35901;48.694;9.476;2023-04-24T15:39:23;11.10;99.90
50013;DHT22;35901;48.694;9.476;2023-04-24T15:41:52;11.00;99.90
50013;DHT22;35901;48.694;9.476;2023-04-24T15:44:19;11.00;99.90
50013;DHT22;35901;48.694;9.476;2023-04-24T15:46:45;11.10;99.90
50013;DHT22;35901;48.694;9.476;2023-04-24T15:49:10;11.00;99.90
50013;DHT22;35901;48.694;9.476;2023-04-24T15:51:36;11.00;99.90
50013;DHT22;35901;48.694;9.476;2023-04-24T15:54:02;11.00;99.90